sensor_id;sensor_type;location;lat;lon;timestamp;P1;durP1;ratioP1;P2;durP2;ratioP2
8650;SDS011;4363;52.346;14.516;2022-07-23T00:02:07;355.00;;;189.70;;
8650;SDS011;4363;52.346;14.516;2022-07-23T00:04:33;353.08;;;187.63;;
8650;SDS011;4363;52.346;14.516;2022-07-23T00:06:59;389.13;;;207.13;;
8650;SDS011;4363;52.346;14.516;2022-07-23T00:09:25;352.88;;;186.10;;
8650;SDS011;4363;52.346;14.516;2022-07-23T00:11:53;381.27;;;199.68;;
8650;SDS011;4363;52.346;14.516;2022-07-23T00:14:19;359.27;;;189.25;;
8650;SDS011;4363;52.346;14.516;2022-07-23T00:16:45;341.85;;;179.98;;
8650;SDS011;4363;52.346;14.516;2022-07-23T00:19:11;332.02;;;175.55;;
8650;SDS011;4363;52.346;14.516;2022-07-23T00:21:37;353.05;;;185.73;;
8650;SDS011;4363;52.346;14.516;2022-07-23T00:24:03;319.13;;;171.30;;
8650;SDS011;4363;52.346;14.516;2022-07-23T00:26:29;341.40;;;178.65;;
8650;SDS011;4363;52.346;14.516;2022-07-23T00:28:55;361.02;;;190.63;;
8650;SDS011;4363;52.346;14.516;2022-07-23T00:31:21;352.67;;;181.95;;
8650;SDS011;4363;52.346;14.516;2022-07-23T00:33:46;363.65;;;200.77;;
8650;SDS011;4363;52.346;14.516;2022-07-23T00:36:12;347.17;;;182.98;;
8650;SDS011;4363;52.346;14.516;2022-07-23T00:38:38;335.10;;;180.10;;
8650;SDS011;4363;52.346;14.516;2022-07-23T00:41:04;356.02;;;188.32;;
8650;SDS011;4363;52.346;14.516;2022-07-23T00:43:30;339.35;;;181.18;;
8650;SDS011;4363;52.346;14.516;2022-07-23T00:45:56;412.35;;;216.20;;
8650;SDS011;4363;52.346;14.516;2022-07-23T00:48:22;388.83;;;200.77;;
8650;SDS011;4363;52.346;14.516;2022-07-23T00:50:48;409.42;;;219.57;;
8650;SDS011;4363;52.346;14.516;2022-07-23T00:53:14;377.85;;;195.27;;
8650;SDS011;4363;52.346;14.516;2022-07-23T00:55:40;408.90;;;221.45;;
8650;SDS011;4363;52.346;14.516;2022-07-23T00:58:06;354.77;;;190.10;;
8650;SDS011;4363;52.346;14.516;2022-07-23T01:00:34;362.63;;;192.93;;
8650;SDS011;4363;52.346;14.516;2022-07-23T01:03:00;388.80;;;202.75;;
8650;SDS011;4363;52.346;14.516;2022-07-23T01:05:26;378.90;;;205.35;;
8650;SDS011;4363;52.346;14.516;2022-07-23T01:07:52;393.38;;;209.55;;
8650;SDS011;4363;52.346;14.516;2022-07-23T01:10:18;434.65;;;227.98;;
8650;SDS011;4363;52.346;14.516;2022-07-23T01:12:56;369.95;;;197.07;;
8650;SDS011;4363;52.346;14.516;2022-07-23T01:15:22;384.80;;;202.37;;
8650;SDS011;4363;52.346;14.516;2022-07-23T01:17:48;369.23;;;194.27;;
8650;SDS011;4363;52.346;14.516;2022-07-23T01:20:14;365.35;;;187.73;;
8650;SDS011;4363;52.346;14.516;2022-07-23T01:22:40;345.65;;;180.38;;
8650;SDS011;4363;52.346;14.516;2022-07-23T01:25:06;334.13;;;177.60;;
8650;SDS011;4363;52.346;14.516;2022-07-23T01:27:32;339.50;;;182.05;;
8650;SDS011;4363;52.346;14.516;2022-07-23T01:29:59;394.92;;;205.20;;
8650;SDS011;4363;52.346;14.516;2022-07-23T01:32:25;388.02;;;198.68;;
8650;SDS011;4363;52.346;14.516;2022-07-23T01:34:51;380.48;;;202.02;;
8650;SDS011;4363;52.346;14.516;2022-07-23T01:37:17;348.75;;;184.30;;
8650;SDS011;4363;52.346;14.516;2022-07-23T01:39:43;349.42;;;184.45;;
8650;SDS011;4363;52.346;14.516;2022-07-23T01:42:09;395.55;;;208.30;;
8650;SDS011;4363;52.346;14.516;2022-07-23T01:44:35;401.43;;;210.37;;
8650;SDS011;4363;52.346;14.516;2022-07-23T01:47:01;388.08;;;204.90;;
8650;SDS011;4363;52.346;14.516;2022-07-23T01:49:27;398.33;;;210.10;;
8650;SDS011;4363;52.346;14.516;2022-07-23T01:51:52;359.70;;;190.30;;
8650;SDS011;4363;52.346;14.516;2022-07-23T01:54:25;434.00;;;225.48;;
8650;SDS011;4363;52.346;14.516;2022-07-23T01:56:51;409.10;;;207.55;;
8650;SDS011;4363;52.346;14.516;2022-07-23T01:59:17;355.67;;;180.10;;
8650;SDS011;4363;52.346;14.516;2022-07-23T02:01:43;351.27;;;181.50;;
8650;SDS011;4363;52.346;14.516;2022-07-23T02:04:09;381.30;;;192.23;;
8650;SDS011;4363;52.346;14.516;2022-07-23T02:06:35;335.10;;;173.63;;
8650;SDS011;4363;52.346;14.516;2022-07-23T02:09:01;383.77;;;198.53;;
8650;SDS011;4363;52.346;14.516;2022-07-23T02:11:26;334.38;;;171.75;;
8650;SDS011;4363;52.346;14.516;2022-07-23T02:13:52;353.23;;;184.77;;
8650;SDS011;4363;52.346;14.516;2022-07-23T02:16:18;393.57;;;198.63;;
8650;SDS011;4363;52.346;14.516;2022-07-23T02:18:44;328.30;;;169.20;;
8650;SDS011;4363;52.346;14.516;2022-07-23T02:21:11;358.83;;;186.73;;
8650;SDS011;4363;52.346;14.516;2022-07-23T02:23:37;328.88;;;171.23;;
8650;SDS011;4363;52.346;14.516;2022-07-23T02:26:03;347.15;;;186.98;;
8650;SDS011;4363;52.346;14.516;2022-07-23T02:28:29;322.55;;;171.52;;
8650;SDS011;4363;52.346;14.516;2022-07-23T02:30:55;372.40;;;197.82;;
8650;SDS011;4363;52.346;14.516;2022-07-23T02:33:21;341.90;;;178.17;;
8650;SDS011;4363;52.346;14.516;2022-07-23T02:35:47;400.27;;;203.85;;
8650;SDS011;4363;52.346;14.516;2022-07-23T02:38:13;346.50;;;177.57;;
8650;SDS011;4363;52.346;14.516;2022-07-23T02:40:39;366.87;;;187.67;;
8650;SDS011;4363;52.346;14.516;2022-07-23T02:43:05;364.73;;;184.43;;
8650;SDS011;4363;52.346;14.516;2022-07-23T02:45:31;399.17;;;203.75;;
8650;SDS011;4363;52.346;14.516;2022-07-23T02:47:57;349.33;;;178.15;;
8650;SDS011;4363;52.346;14.516;2022-07-23T02:50:22;358.37;;;181.83;;
8650;SDS011;4363;52.346;14.516;2022-07-23T02:52:48;352.83;;;181.63;;
8650;SDS011;4363;52.346;14.516;2022-07-23T02:55:14;369.63;;;183.60;;
8650;SDS011;4363;52.346;14.516;2022-07-23T02:57:40;359.57;;;184.43;;
8650;SDS011;4363;52.346;14.516;2022-07-23T03:00:06;355.20;;;178.10;;
8650;SDS011;4363;52.346;14.516;2022-07-23T03:02:32;335.38;;;169.73;;
8650;SDS011;4363;52.346;14.516;2022-07-23T03:04:58;363.93;;;184.87;;
8650;SDS011;4363;52.346;14.516;2022-07-23T03:07:24;341.17;;;169.15;;
8650;SDS011;4363;52.346;14.516;2022-07-23T03:09:50;375.00;;;188.77;;
8650;SDS011;4363;52.346;14.516;2022-07-23T03:12:16;358.73;;;180.27;;
8650;SDS011;4363;52.346;14.516;2022-07-23T03:14:42;358.35;;;180.35;;
8650;SDS011;4363;52.346;14.516;2022-07-23T03:17:08;358.33;;;179.00;;
8650;SDS011;4363;52.346;14.516;2022-07-23T03:19:34;359.97;;;186.33;;
8650;SDS011;4363;52.346;14.516;2022-07-23T03:22:02;358.15;;;179.73;;
8650;SDS011;4363;52.346;14.516;2022-07-23T03:24:28;384.00;;;193.20;;
8650;SDS011;4363;52.346;14.516;2022-07-23T03:27:13;401.87;;;198.27;;
8650;SDS011;4363;52.346;14.516;2022-07-23T03:29:39;324.60;;;163.07;;
8650;SDS011;4363;52.346;14.516;2022-07-23T03:32:05;327.50;;;165.80;;
8650;SDS011;4363;52.346;14.516;2022-07-23T03:34:31;347.17;;;171.90;;
8650;SDS011;4363;52.346;14.516;2022-07-23T03:36:56;350.25;;;177.55;;
8650;SDS011;4363;52.346;14.516;2022-07-23T03:39:22;409.43;;;201.20;;
8650;SDS011;4363;52.346;14.516;2022-07-23T03:41:48;368.48;;;183.32;;
8650;SDS011;4363;52.346;14.516;2022-07-23T03:44:14;366.60;;;180.10;;
8650;SDS011;4363;52.346;14.516;2022-07-23T03:46:40;328.45;;;162.95;;
8650;SDS011;4363;52.346;14.516;2022-07-23T03:49:06;362.57;;;180.77;;
8650;SDS011;4363;52.346;14.516;2022-07-23T03:51:32;345.20;;;172.90;;
8650;SDS011;4363;52.346;14.516;2022-07-23T03:53:58;399.02;;;204.40;;
8650;SDS011;4363;52.346;14.516;2022-07-23T03:56:24;418.17;;;205.30;;
8650;SDS011;4363;52.346;14.516;2022-07-23T03:58:50;354.07;;;182.17;;
8650;SDS011;4363;52.346;14.516;2022-07-23T04:01:16;376.17;;;187.77;;
8650;SDS011;4363;52.346;14.516;2022-07-23T04:03:42;352.92;;;179.18;;
8650;SDS011;4363;52.346;14.516;2022-07-23T04:06:08;368.50;;;195.93;;
8650;SDS011;4363;52.346;14.516;2022-07-23T04:08:34;348.75;;;179.45;;
8650;SDS011;4363;52.346;14.516;2022-07-23T04:11:00;385.73;;;204.82;;
8650;SDS011;4363;52.346;14.516;2022-07-23T04:13:26;350.40;;;182.52;;
8650;SDS011;4363;52.346;14.516;2022-07-23T04:15:52;357.75;;;190.20;;
8650;SDS011;4363;52.346;14.516;2022-07-23T04:18:18;347.42;;;182.00;;
8650;SDS011;4363;52.346;14.516;2022-07-23T04:20:46;358.63;;;190.75;;
8650;SDS011;4363;52.346;14.516;2022-07-23T04:23:13;379.10;;;196.80;;
8650;SDS011;4363;52.346;14.516;2022-07-23T04:25:38;412.20;;;216.68;;
8650;SDS011;4363;52.346;14.516;2022-07-23T04:28:04;327.88;;;168.98;;
8650;SDS011;4363;52.346;14.516;2022-07-23T04:30:30;343.23;;;178.88;;
8650;SDS011;4363;52.346;14.516;2022-07-23T04:32:56;380.02;;;198.43;;
8650;SDS011;4363;52.346;14.516;2022-07-23T04:35:22;382.42;;;198.57;;
8650;SDS011;4363;52.346;14.516;2022-07-23T04:37:48;380.42;;;203.70;;
8650;SDS011;4363;52.346;14.516;2022-07-23T04:40:15;355.88;;;183.30;;
8650;SDS011;4363;52.346;14.516;2022-07-23T04:42:41;355.38;;;187.70;;
8650;SDS011;4363;52.346;14.516;2022-07-23T04:45:07;379.60;;;196.05;;
8650;SDS011;4363;52.346;14.516;2022-07-23T04:47:33;355.75;;;188.52;;
8650;SDS011;4363;52.346;14.516;2022-07-23T04:49:59;360.23;;;195.60;;
8650;SDS011;4363;52.346;14.516;2022-07-23T04:52:25;381.25;;;204.00;;
8650;SDS011;4363;52.346;14.516;2022-07-23T04:54:51;380.15;;;205.20;;
8650;SDS011;4363;52.346;14.516;2022-07-23T04:57:17;440.85;;;227.25;;
8650;SDS011;4363;52.346;14.516;2022-07-23T04:59:43;350.35;;;190.65;;
8650;SDS011;4363;52.346;14.516;2022-07-23T05:02:09;347.55;;;187.00;;
8650;SDS011;4363;52.346;14.516;2022-07-23T05:04:34;340.48;;;181.70;;
8650;SDS011;4363;52.346;14.516;2022-07-23T05:07:00;360.60;;;191.65;;
8650;SDS011;4363;52.346;14.516;2022-07-23T05:09:26;425.52;;;225.52;;
8650;SDS011;4363;52.346;14.516;2022-07-23T05:11:52;375.75;;;200.57;;
8650;SDS011;4363;52.346;14.516;2022-07-23T05:14:18;400.90;;;216.15;;
8650;SDS011;4363;52.346;14.516;2022-07-23T05:16:44;346.27;;;192.25;;
8650;SDS011;4363;52.346;14.516;2022-07-23T05:19:10;345.33;;;193.10;;
8650;SDS011;4363;52.346;14.516;2022-07-23T05:21:36;380.83;;;203.65;;
8650;SDS011;4363;52.346;14.516;2022-07-23T05:24:02;397.23;;;215.93;;
8650;SDS011;4363;52.346;14.516;2022-07-23T05:26:28;392.95;;;212.77;;
8650;SDS011;4363;52.346;14.516;2022-07-23T05:28:54;430.02;;;225.32;;
8650;SDS011;4363;52.346;14.516;2022-07-23T05:31:20;411.75;;;221.25;;
8650;SDS011;4363;52.346;14.516;2022-07-23T05:33:46;367.80;;;200.30;;
8650;SDS011;4363;52.346;14.516;2022-07-23T05:36:12;385.75;;;209.27;;
8650;SDS011;4363;52.346;14.516;2022-07-23T05:38:37;354.77;;;190.35;;
8650;SDS011;4363;52.346;14.516;2022-07-23T05:41:03;410.25;;;222.02;;
8650;SDS011;4363;52.346;14.516;2022-07-23T05:43:29;369.83;;;202.05;;
8650;SDS011;4363;52.346;14.516;2022-07-23T05:45:55;364.02;;;196.77;;
8650;SDS011;4363;52.346;14.516;2022-07-23T05:48:21;376.08;;;202.90;;
8650;SDS011;4363;52.346;14.516;2022-07-23T05:50:47;398.05;;;216.88;;
8650;SDS011;4363;52.346;14.516;2022-07-23T05:53:13;377.33;;;198.60;;
8650;SDS011;4363;52.346;14.516;2022-07-23T05:55:39;422.98;;;223.25;;
8650;SDS011;4363;52.346;14.516;2022-07-23T05:58:05;367.38;;;192.90;;
8650;SDS011;4363;52.346;14.516;2022-07-23T06:00:31;349.25;;;191.07;;
8650;SDS011;4363;52.346;14.516;2022-07-23T06:02:57;415.77;;;227.20;;
8650;SDS011;4363;52.346;14.516;2022-07-23T06:05:23;417.73;;;223.40;;
8650;SDS011;4363;52.346;14.516;2022-07-23T06:07:50;437.38;;;237.32;;
8650;SDS011;4363;52.346;14.516;2022-07-23T06:10:16;357.23;;;197.55;;
8650;SDS011;4363;52.346;14.516;2022-07-23T06:12:42;342.60;;;194.33;;
8650;SDS011;4363;52.346;14.516;2022-07-23T06:15:08;358.25;;;189.93;;
8650;SDS011;4363;52.346;14.516;2022-07-23T06:17:35;340.05;;;190.07;;
8650;SDS011;4363;52.346;14.516;2022-07-23T06:20:03;348.92;;;195.25;;
8650;SDS011;4363;52.346;14.516;2022-07-23T06:22:30;371.98;;;206.18;;
8650;SDS011;4363;52.346;14.516;2022-07-23T06:24:55;361.05;;;203.38;;
8650;SDS011;4363;52.346;14.516;2022-07-23T06:27:21;420.17;;;232.00;;
8650;SDS011;4363;52.346;14.516;2022-07-23T06:29:47;401.63;;;225.18;;
8650;SDS011;4363;52.346;14.516;2022-07-23T06:32:13;351.20;;;200.02;;
8650;SDS011;4363;52.346;14.516;2022-07-23T06:34:39;357.05;;;196.90;;
8650;SDS011;4363;52.346;14.516;2022-07-23T06:37:05;360.73;;;202.90;;
8650;SDS011;4363;52.346;14.516;2022-07-23T06:39:31;422.20;;;231.50;;
8650;SDS011;4363;52.346;14.516;2022-07-23T06:41:57;413.88;;;231.65;;
8650;SDS011;4363;52.346;14.516;2022-07-23T06:44:23;378.92;;;202.35;;
8650;SDS011;4363;52.346;14.516;2022-07-23T06:46:49;350.48;;;194.65;;
8650;SDS011;4363;52.346;14.516;2022-07-23T06:49:15;394.27;;;206.45;;
8650;SDS011;4363;52.346;14.516;2022-07-23T06:51:41;334.40;;;183.00;;
8650;SDS011;4363;52.346;14.516;2022-07-23T06:54:07;615.03;;;311.17;;
8650;SDS011;4363;52.346;14.516;2022-07-23T06:56:33;417.15;;;222.80;;
8650;SDS011;4363;52.346;14.516;2022-07-23T06:58:59;593.38;;;311.48;;
8650;SDS011;4363;52.346;14.516;2022-07-23T07:01:24;391.70;;;199.35;;
8650;SDS011;4363;52.346;14.516;2022-07-23T07:03:50;373.45;;;189.85;;
8650;SDS011;4363;52.346;14.516;2022-07-23T07:06:16;378.87;;;196.13;;
8650;SDS011;4363;52.346;14.516;2022-07-23T07:08:42;402.58;;;211.68;;
8650;SDS011;4363;52.346;14.516;2022-07-23T07:11:09;377.52;;;199.57;;
8650;SDS011;4363;52.346;14.516;2022-07-23T07:13:35;497.73;;;250.10;;
8650;SDS011;4363;52.346;14.516;2022-07-23T07:16:01;397.47;;;204.87;;
8650;SDS011;4363;52.346;14.516;2022-07-23T07:18:27;383.25;;;189.70;;
8650;SDS011;4363;52.346;14.516;2022-07-23T07:20:53;383.37;;;199.50;;
8650;SDS011;4363;52.346;14.516;2022-07-23T07:23:19;402.93;;;202.50;;
8650;SDS011;4363;52.346;14.516;2022-07-23T07:25:45;391.00;;;206.33;;
8650;SDS011;4363;52.346;14.516;2022-07-23T07:28:11;366.50;;;188.63;;
8650;SDS011;4363;52.346;14.516;2022-07-23T07:30:37;418.90;;;205.17;;
8650;SDS011;4363;52.346;14.516;2022-07-23T07:33:03;372.20;;;186.93;;
8650;SDS011;4363;52.346;14.516;2022-07-23T07:35:29;386.13;;;200.63;;
8650;SDS011;4363;52.346;14.516;2022-07-23T07:37:57;354.40;;;180.70;;
8650;SDS011;4363;52.346;14.516;2022-07-23T07:40:23;387.33;;;198.27;;
8650;SDS011;4363;52.346;14.516;2022-07-23T07:42:49;373.27;;;187.67;;
8650;SDS011;4363;52.346;14.516;2022-07-23T07:45:16;399.98;;;198.93;;
8650;SDS011;4363;52.346;14.516;2022-07-23T07:47:42;339.47;;;168.57;;
8650;SDS011;4363;52.346;14.516;2022-07-23T07:50:08;361.80;;;177.77;;
8650;SDS011;4363;52.346;14.516;2022-07-23T07:52:34;332.83;;;162.47;;
8650;SDS011;4363;52.346;14.516;2022-07-23T07:55:04;366.87;;;178.73;;
8650;SDS011;4363;52.346;14.516;2022-07-23T07:57:31;371.57;;;184.13;;
8650;SDS011;4363;52.346;14.516;2022-07-23T07:59:57;367.97;;;184.73;;
8650;SDS011;4363;52.346;14.516;2022-07-23T08:02:23;375.60;;;182.10;;
8650;SDS011;4363;52.346;14.516;2022-07-23T08:04:49;366.67;;;184.00;;
8650;SDS011;4363;52.346;14.516;2022-07-23T08:07:15;396.50;;;197.33;;
8650;SDS011;4363;52.346;14.516;2022-07-23T08:09:41;378.50;;;194.33;;
8650;SDS011;4363;52.346;14.516;2022-07-23T08:12:07;387.60;;;201.97;;
8650;SDS011;4363;52.346;14.516;2022-07-23T08:14:33;353.77;;;182.20;;
8650;SDS011;4363;52.346;14.516;2022-07-23T08:16:59;385.40;;;202.27;;
8650;SDS011;4363;52.346;14.516;2022-07-23T08:19:25;373.10;;;195.03;;
8650;SDS011;4363;52.346;14.516;2022-07-23T08:21:51;397.83;;;207.73;;
8650;SDS011;4363;52.346;14.516;2022-07-23T08:24:17;412.55;;;216.25;;
8650;SDS011;4363;52.346;14.516;2022-07-23T08:26:43;354.10;;;185.63;;
8650;SDS011;4363;52.346;14.516;2022-07-23T08:29:09;378.93;;;198.33;;
8650;SDS011;4363;52.346;14.516;2022-07-23T08:31:34;376.42;;;204.52;;
8650;SDS011;4363;52.346;14.516;2022-07-23T08:34:00;389.58;;;214.88;;
8650;SDS011;4363;52.346;14.516;2022-07-23T08:36:27;422.92;;;222.40;;
8650;SDS011;4363;52.346;14.516;2022-07-23T08:38:54;431.05;;;235.13;;
8650;SDS011;4363;52.346;14.516;2022-07-23T08:41:20;425.17;;;226.45;;
8650;SDS011;4363;52.346;14.516;2022-07-23T08:43:46;405.20;;;213.77;;
8650;SDS011;4363;52.346;14.516;2022-07-23T08:46:12;377.90;;;201.27;;
8650;SDS011;4363;52.346;14.516;2022-07-23T08:48:38;379.90;;;200.82;;
8650;SDS011;4363;52.346;14.516;2022-07-23T08:51:05;367.52;;;203.30;;
8650;SDS011;4363;52.346;14.516;2022-07-23T08:53:32;371.02;;;198.55;;
8650;SDS011;4363;52.346;14.516;2022-07-23T08:55:59;397.45;;;219.75;;
8650;SDS011;4363;52.346;14.516;2022-07-23T08:58:26;382.33;;;207.95;;
8650;SDS011;4363;52.346;14.516;2022-07-23T09:00:52;396.40;;;212.32;;
8650;SDS011;4363;52.346;14.516;2022-07-23T09:03:19;381.77;;;209.02;;
8650;SDS011;4363;52.346;14.516;2022-07-23T09:05:45;416.48;;;232.80;;
8650;SDS011;4363;52.346;14.516;2022-07-23T09:10:44;421.13;;;229.90;;
8650;SDS011;4363;52.346;14.516;2022-07-23T09:15:55;390.27;;;223.60;;
8650;SDS011;4363;52.346;14.516;2022-07-23T09:18:28;406.77;;;232.85;;
8650;SDS011;4363;52.346;14.516;2022-07-23T09:23:43;351.50;;;205.43;;
8650;SDS011;4363;52.346;14.516;2022-07-23T09:26:29;366.00;;;213.32;;
8650;SDS011;4363;52.346;14.516;2022-07-23T09:28:57;394.80;;;228.07;;
8650;SDS011;4363;52.346;14.516;2022-07-23T09:31:23;390.58;;;220.77;;
8650;SDS011;4363;52.346;14.516;2022-07-23T09:33:49;410.70;;;234.30;;
8650;SDS011;4363;52.346;14.516;2022-07-23T09:36:15;363.73;;;208.50;;
8650;SDS011;4363;52.346;14.516;2022-07-23T09:38:52;397.08;;;227.52;;
8650;SDS011;4363;52.346;14.516;2022-07-23T09:41:18;360.27;;;212.95;;
8650;SDS011;4363;52.346;14.516;2022-07-23T09:43:44;356.17;;;194.07;;
8650;SDS011;4363;52.346;14.516;2022-07-23T09:46:19;350.25;;;188.57;;
8650;SDS011;4363;52.346;14.516;2022-07-23T09:48:46;380.27;;;203.50;;
8650;SDS011;4363;52.346;14.516;2022-07-23T09:51:12;396.35;;;209.68;;
8650;SDS011;4363;52.346;14.516;2022-07-23T09:53:58;400.05;;;212.00;;
8650;SDS011;4363;52.346;14.516;2022-07-23T09:56:24;405.77;;;222.23;;
8650;SDS011;4363;52.346;14.516;2022-07-23T09:58:52;413.35;;;232.88;;
8650;SDS011;4363;52.346;14.516;2022-07-23T10:01:48;374.03;;;204.03;;
8650;SDS011;4363;52.346;14.516;2022-07-23T10:04:14;380.10;;;207.02;;
8650;SDS011;4363;52.346;14.516;2022-07-23T10:06:40;388.48;;;219.02;;
8650;SDS011;4363;52.346;14.516;2022-07-23T10:09:06;384.15;;;221.98;;
8650;SDS011;4363;52.346;14.516;2022-07-23T10:11:32;411.45;;;237.30;;
8650;SDS011;4363;52.346;14.516;2022-07-23T10:13:59;400.60;;;226.73;;
8650;SDS011;4363;52.346;14.516;2022-07-23T10:16:30;382.98;;;220.40;;
8650;SDS011;4363;52.346;14.516;2022-07-23T10:18:56;427.88;;;244.15;;
8650;SDS011;4363;52.346;14.516;2022-07-23T10:21:27;464.05;;;258.45;;
8650;SDS011;4363;52.346;14.516;2022-07-23T10:24:10;369.85;;;219.80;;
8650;SDS011;4363;52.346;14.516;2022-07-23T10:26:41;361.27;;;212.18;;
8650;SDS011;4363;52.346;14.516;2022-07-23T10:29:13;378.50;;;215.95;;
8650;SDS011;4363;52.346;14.516;2022-07-23T10:34:21;375.73;;;222.57;;
8650;SDS011;4363;52.346;14.516;2022-07-23T10:36:51;401.17;;;239.32;;
8650;SDS011;4363;52.346;14.516;2022-07-23T10:39:39;367.58;;;217.02;;
8650;SDS011;4363;52.346;14.516;2022-07-23T10:42:08;395.45;;;231.35;;
8650;SDS011;4363;52.346;14.516;2022-07-23T10:44:41;413.27;;;241.88;;
8650;SDS011;4363;52.346;14.516;2022-07-23T10:47:08;356.05;;;208.30;;
8650;SDS011;4363;52.346;14.516;2022-07-23T10:49:52;405.55;;;242.43;;
8650;SDS011;4363;52.346;14.516;2022-07-23T10:52:23;411.13;;;230.20;;
8650;SDS011;4363;52.346;14.516;2022-07-23T10:54:56;415.67;;;242.60;;
8650;SDS011;4363;52.346;14.516;2022-07-23T10:57:25;386.80;;;228.88;;
8650;SDS011;4363;52.346;14.516;2022-07-23T11:02:33;353.90;;;214.70;;
8650;SDS011;4363;52.346;14.516;2022-07-23T11:05:00;399.95;;;221.85;;
8650;SDS011;4363;52.346;14.516;2022-07-23T11:07:26;371.92;;;218.57;;
8650;SDS011;4363;52.346;14.516;2022-07-23T11:09:53;375.95;;;214.43;;
8650;SDS011;4363;52.346;14.516;2022-07-23T11:17:29;394.23;;;215.50;;
8650;SDS011;4363;52.346;14.516;2022-07-23T11:25:11;373.35;;;204.73;;
8650;SDS011;4363;52.346;14.516;2022-07-23T11:27:42;363.60;;;204.80;;
8650;SDS011;4363;52.346;14.516;2022-07-23T11:30:08;383.48;;;214.70;;
8650;SDS011;4363;52.346;14.516;2022-07-23T11:32:36;357.63;;;210.95;;
8650;SDS011;4363;52.346;14.516;2022-07-23T11:35:17;409.98;;;229.27;;
8650;SDS011;4363;52.346;14.516;2022-07-23T11:37:44;377.50;;;212.10;;
8650;SDS011;4363;52.346;14.516;2022-07-23T11:40:14;361.20;;;201.63;;
8650;SDS011;4363;52.346;14.516;2022-07-23T11:42:54;400.25;;;218.98;;
8650;SDS011;4363;52.346;14.516;2022-07-23T11:45:20;532.05;;;287.02;;
8650;SDS011;4363;52.346;14.516;2022-07-23T11:47:46;395.38;;;219.25;;
8650;SDS011;4363;52.346;14.516;2022-07-23T11:50:12;385.90;;;221.52;;
8650;SDS011;4363;52.346;14.516;2022-07-23T11:52:38;352.80;;;210.88;;
8650;SDS011;4363;52.346;14.516;2022-07-23T11:55:06;364.15;;;217.35;;
8650;SDS011;4363;52.346;14.516;2022-07-23T11:57:33;351.33;;;201.45;;
8650;SDS011;4363;52.346;14.516;2022-07-23T12:02:31;414.35;;;239.52;;
8650;SDS011;4363;52.346;14.516;2022-07-23T12:04:57;389.95;;;232.13;;
8650;SDS011;4363;52.346;14.516;2022-07-23T12:09:53;429.10;;;248.82;;
8650;SDS011;4363;52.346;14.516;2022-07-23T12:12:19;355.92;;;206.07;;
8650;SDS011;4363;52.346;14.516;2022-07-23T12:14:49;358.55;;;204.35;;
8650;SDS011;4363;52.346;14.516;2022-07-23T12:17:15;364.35;;;206.48;;
8650;SDS011;4363;52.346;14.516;2022-07-23T12:19:41;354.42;;;207.45;;
8650;SDS011;4363;52.346;14.516;2022-07-23T12:22:07;365.13;;;207.40;;
8650;SDS011;4363;52.346;14.516;2022-07-23T12:27:19;434.60;;;245.77;;
8650;SDS011;4363;52.346;14.516;2022-07-23T12:29:45;353.55;;;218.23;;
8650;SDS011;4363;52.346;14.516;2022-07-23T12:32:27;400.92;;;239.80;;
8650;SDS011;4363;52.346;14.516;2022-07-23T12:35:03;363.65;;;219.30;;
8650;SDS011;4363;52.346;14.516;2022-07-23T12:37:31;373.35;;;230.25;;
8650;SDS011;4363;52.346;14.516;2022-07-23T12:39:57;368.75;;;234.35;;
8650;SDS011;4363;52.346;14.516;2022-07-23T12:42:23;422.30;;;262.27;;
8650;SDS011;4363;52.346;14.516;2022-07-23T12:45:02;468.30;;;289.83;;
8650;SDS011;4363;52.346;14.516;2022-07-23T12:47:28;377.30;;;241.55;;
8650;SDS011;4363;52.346;14.516;2022-07-23T12:49:54;431.38;;;265.15;;
8650;SDS011;4363;52.346;14.516;2022-07-23T12:52:20;368.67;;;234.88;;
8650;SDS011;4363;52.346;14.516;2022-07-23T12:54:46;398.20;;;233.80;;
8650;SDS011;4363;52.346;14.516;2022-07-23T12:57:12;392.88;;;238.02;;
8650;SDS011;4363;52.346;14.516;2022-07-23T12:59:38;416.77;;;251.70;;
8650;SDS011;4363;52.346;14.516;2022-07-23T13:02:04;369.23;;;229.85;;
8650;SDS011;4363;52.346;14.516;2022-07-23T13:04:34;385.42;;;247.43;;
8650;SDS011;4363;52.346;14.516;2022-07-23T13:06:59;423.70;;;267.95;;
8650;SDS011;4363;52.346;14.516;2022-07-23T13:09:30;444.85;;;266.45;;
8650;SDS011;4363;52.346;14.516;2022-07-23T13:11:56;409.98;;;254.73;;
8650;SDS011;4363;52.346;14.516;2022-07-23T13:14:23;368.20;;;240.02;;
8650;SDS011;4363;52.346;14.516;2022-07-23T13:16:50;389.17;;;253.43;;
8650;SDS011;4363;52.346;14.516;2022-07-23T13:19:16;374.95;;;245.40;;
8650;SDS011;4363;52.346;14.516;2022-07-23T13:21:42;356.27;;;238.35;;
8650;SDS011;4363;52.346;14.516;2022-07-23T13:24:09;372.38;;;238.95;;
8650;SDS011;4363;52.346;14.516;2022-07-23T13:26:35;363.25;;;237.20;;
8650;SDS011;4363;52.346;14.516;2022-07-23T13:29:01;420.25;;;263.25;;
8650;SDS011;4363;52.346;14.516;2022-07-23T13:31:27;394.88;;;250.93;;
8650;SDS011;4363;52.346;14.516;2022-07-23T13:33:53;426.63;;;265.83;;
8650;SDS011;4363;52.346;14.516;2022-07-23T13:36:19;443.67;;;276.98;;
8650;SDS011;4363;52.346;14.516;2022-07-23T13:38:45;379.15;;;242.35;;
8650;SDS011;4363;52.346;14.516;2022-07-23T13:41:11;360.17;;;231.35;;
8650;SDS011;4363;52.346;14.516;2022-07-23T13:43:37;359.98;;;235.63;;
8650;SDS011;4363;52.346;14.516;2022-07-23T13:46:03;368.95;;;240.95;;
8650;SDS011;4363;52.346;14.516;2022-07-23T13:48:29;425.20;;;269.42;;
8650;SDS011;4363;52.346;14.516;2022-07-23T13:50:55;424.00;;;269.30;;
8650;SDS011;4363;52.346;14.516;2022-07-23T13:53:22;417.65;;;263.58;;
8650;SDS011;4363;52.346;14.516;2022-07-23T13:55:50;457.02;;;284.83;;
8650;SDS011;4363;52.346;14.516;2022-07-23T13:58:16;398.30;;;256.67;;
8650;SDS011;4363;52.346;14.516;2022-07-23T14:00:43;400.73;;;258.70;;
8650;SDS011;4363;52.346;14.516;2022-07-23T14:03:09;397.98;;;261.63;;
8650;SDS011;4363;52.346;14.516;2022-07-23T14:05:36;417.80;;;278.38;;
8650;SDS011;4363;52.346;14.516;2022-07-23T14:08:02;445.30;;;288.13;;
8650;SDS011;4363;52.346;14.516;2022-07-23T14:10:29;407.70;;;277.73;;
8650;SDS011;4363;52.346;14.516;2022-07-23T14:12:55;427.65;;;297.08;;
8650;SDS011;4363;52.346;14.516;2022-07-23T14:15:23;431.83;;;300.33;;
8650;SDS011;4363;52.346;14.516;2022-07-23T14:17:49;420.20;;;290.67;;
8650;SDS011;4363;52.346;14.516;2022-07-23T14:20:15;407.40;;;278.55;;
8650;SDS011;4363;52.346;14.516;2022-07-23T14:22:41;391.67;;;277.55;;
8650;SDS011;4363;52.346;14.516;2022-07-23T14:25:07;363.02;;;265.02;;
8650;SDS011;4363;52.346;14.516;2022-07-23T14:27:33;370.20;;;277.48;;
8650;SDS011;4363;52.346;14.516;2022-07-23T14:29:59;390.85;;;303.40;;
8650;SDS011;4363;52.346;14.516;2022-07-23T14:32:26;397.25;;;299.90;;
8650;SDS011;4363;52.346;14.516;2022-07-23T14:34:52;419.80;;;315.25;;
8650;SDS011;4363;52.346;14.516;2022-07-23T14:37:18;386.27;;;298.52;;
8650;SDS011;4363;52.346;14.516;2022-07-23T14:39:44;407.60;;;315.98;;